createdAt,value
2018-08-04T00:01:57.659Z,10
2018-08-04T00:07:52.691Z,9.3
2018-08-04T00:13:47.705Z,9.06
2018-08-04T00:19:42.659Z,8.87
2018-08-04T00:25:37.688Z,9.75
2018-08-04T00:31:32.684Z,9.53
2018-08-04T00:37:27.725Z,9.4
2018-08-04T00:43:22.709Z,9.24
2018-08-04T00:49:17.698Z,10.03
2018-08-04T00:55:12.744Z,9.1
2018-08-04T01:01:07.696Z,9.38
2018-08-04T01:07:02.715Z,9.88
2018-08-04T01:12:57.732Z,9.38
2018-08-04T01:18:52.689Z,8.81
2018-08-04T01:24:47.730Z,9.94
2018-08-04T01:30:42.718Z,10.21
2018-08-04T01:36:37.721Z,10.51
2018-08-04T01:42:32.725Z,9.97
2018-08-04T01:48:27.722Z,10.03
2018-08-04T01:54:22.744Z,9.98
2018-08-04T02:00:17.719Z,10.51
2018-08-04T02:06:12.740Z,10.17
2018-08-04T02:12:07.716Z,9.76
2018-08-04T02:18:02.780Z,10.47
2018-08-04T02:23:57.799Z,10.77
2018-08-04T02:29:52.759Z,10.32
2018-08-04T02:35:47.747Z,10.45
2018-08-04T02:41:42.812Z,10.82
2018-08-04T02:47:37.786Z,10.77
2018-08-04T02:53:32.803Z,10.13
2018-08-04T02:59:27.777Z,10.9
2018-08-04T03:05:22.770Z,9.89
2018-08-04T03:11:17.769Z,10
2018-08-04T03:17:12.771Z,9.37
2018-08-04T03:23:07.794Z,10.67
2018-08-04T03:29:02.844Z,10.18
2018-08-04T03:34:57.797Z,10.52
2018-08-04T03:40:52.800Z,9.59
2018-08-04T03:46:47.827Z,9.73
2018-08-04T03:52:42.786Z,10.26
2018-08-04T03:58:37.844Z,9.88
2018-08-04T04:04:32.848Z,11.19
2018-08-04T04:10:27.815Z,11.06
2018-08-04T04:16:22.813Z,10.81
2018-08-04T04:22:17.842Z,10.66
2018-08-04T04:28:12.814Z,11.23
2018-08-04T04:34:07.855Z,10.5
2018-08-04T04:40:02.835Z,11.02
2018-08-04T04:45:57.835Z,11.38
2018-08-04T04:51:52.832Z,11.35
2018-08-04T04:57:47.869Z,11.28
2018-08-04T05:03:42.825Z,11.21
2018-08-04T05:09:37.846Z,10.93
2018-08-04T05:15:32.905Z,11.76
2018-08-04T05:21:27.879Z,11.66
2018-08-04T05:27:22.869Z,10.63
2018-08-04T05:33:17.905Z,10.47
2018-08-04T05:39:12.899Z,11.35
2018-08-04T05:45:07.859Z,11.66
2018-08-04T05:51:02.869Z,10.92
2018-08-04T05:56:57.870Z,10.74
2018-08-04T06:02:52.957Z,11.15
2018-08-04T06:08:47.884Z,10.4
2018-08-04T06:14:42.946Z,10.2
2018-08-04T06:20:37.934Z,10.68
2018-08-04T06:26:32.928Z,9.57
2018-08-04T06:32:27.885Z,10.7
2018-08-04T06:38:22.904Z,10.34
2018-08-04T06:44:17.892Z,10.41
2018-08-04T06:50:12.911Z,9.5
2018-08-04T06:56:07.911Z,9.19
2018-08-04T07:02:02.929Z,10.01
2018-08-04T07:07:57.901Z,8.91
2018-08-04T07:13:53.033Z,9.33
2018-08-04T07:19:47.920Z,9.62
2018-08-04T07:25:42.930Z,8.27
2018-08-04T07:31:37.940Z,8.55
2018-08-04T07:37:32.954Z,10.08
2018-08-04T07:43:27.962Z,10.73
2018-08-04T07:49:22.979Z,9.7
2018-08-04T07:55:17.958Z,10.23
2018-08-04T08:01:12.956Z,10.38
2018-08-04T08:07:07.989Z,11.77
2018-08-04T08:13:02.960Z,11.89
2018-08-04T08:18:58.001Z,11.13
2018-08-04T08:24:53.018Z,10.98
2018-08-04T08:30:47.959Z,9.33
2018-08-04T08:36:43.016Z,8.37
2018-08-04T08:42:37.963Z,8.51
2018-08-04T08:48:32.988Z,8.89
2018-08-04T08:54:28.020Z,8.37
2018-08-04T09:00:22.986Z,8.58
2018-08-04T09:06:18.032Z,9.3
2018-08-04T09:12:13.021Z,8.14
2018-08-04T09:18:08.037Z,7.76
2018-08-04T09:24:03.056Z,7.48
2018-08-04T09:29:58.000Z,6.83
2018-08-04T09:35:53.038Z,7.23
2018-08-04T09:41:48.007Z,7.02
2018-08-04T09:47:43.031Z,6.23
2018-08-04T09:53:38.037Z,4.76
2018-08-04T09:59:33.083Z,4.84
2018-08-04T10:05:28.065Z,5.91
2018-08-04T10:11:23.093Z,5.42
2018-08-04T10:17:18.040Z,5.47
2018-08-04T10:23:13.037Z,4.83
2018-08-04T10:29:08.036Z,5.1
2018-08-04T10:35:03.054Z,6.03
2018-08-04T10:40:58.052Z,5.46
2018-08-04T10:46:53.065Z,5.92
2018-08-04T10:52:48.041Z,5.5
2018-08-04T10:58:43.061Z,4.93
2018-08-04T11:04:38.054Z,5.72
2018-08-04T11:10:33.062Z,5.36
2018-08-04T11:16:28.063Z,5.88
2018-08-04T11:22:23.059Z,4.83
2018-08-04T11:28:18.076Z,5.18
2018-08-04T11:34:13.094Z,5.07
2018-08-04T11:40:08.082Z,4.59
2018-08-04T11:46:03.089Z,4.6
2018-08-04T11:51:58.091Z,4.4
2018-08-04T11:57:53.105Z,4.79
2018-08-04T12:03:48.102Z,3.75
2018-08-04T12:09:43.098Z,3.63
2018-08-04T12:15:38.103Z,3.18
2018-08-04T12:21:33.116Z,3.56
2018-08-04T12:27:28.112Z,3.47
2018-08-04T12:33:23.136Z,3.73
2018-08-04T12:39:18.128Z,3.09
2018-08-04T12:45:13.158Z,3.45
2018-08-04T12:51:08.136Z,3.04
2018-08-04T12:57:03.158Z,2.79
2018-08-04T13:02:58.128Z,3.69
2018-08-04T13:08:53.220Z,3.9
2018-08-04T13:14:48.162Z,3.87
2018-08-04T13:20:43.161Z,3.48
2018-08-04T13:26:38.140Z,4.38
2018-08-04T13:32:33.160Z,3.96
2018-08-04T13:38:28.137Z,4.17
2018-08-04T13:44:23.178Z,4.05
2018-08-04T13:50:18.282Z,4.32
2018-08-04T13:56:13.168Z,3.86
2018-08-04T14:02:08.174Z,4
2018-08-04T14:08:03.173Z,3.94
2018-08-04T14:13:58.182Z,3.85
2018-08-04T14:19:53.197Z,4.55
2018-08-04T14:25:48.176Z,4.39
2018-08-04T14:31:43.213Z,4.49
2018-08-04T14:37:38.221Z,4.82
2018-08-04T14:43:33.198Z,4.87
2018-08-04T14:49:28.225Z,4.97
2018-08-04T14:55:23.238Z,5.16
2018-08-04T15:01:18.229Z,4.98
2018-08-04T15:07:13.203Z,5.36
2018-08-04T15:13:08.254Z,6.33
2018-08-04T15:19:03.196Z,5.9
2018-08-04T15:24:58.222Z,5.65
2018-08-04T15:30:53.238Z,5.34
2018-08-04T15:36:48.224Z,5.2
2018-08-04T15:42:43.264Z,5.72
2018-08-04T15:48:38.255Z,5.81
2018-08-04T15:54:33.241Z,5.71
2018-08-04T16:00:28.232Z,6.17
2018-08-04T16:06:23.241Z,6.05
2018-08-04T16:12:18.250Z,5.69
2018-08-04T16:18:13.258Z,4.81
2018-08-04T16:24:08.253Z,4.97
2018-08-04T16:30:03.260Z,4.79
2018-08-04T16:35:58.268Z,4.91
2018-08-04T16:41:53.358Z,5.3
2018-08-04T16:47:48.342Z,4.87
2018-08-04T16:53:43.311Z,4.82
2018-08-04T16:59:38.316Z,4.78
2018-08-04T17:05:33.286Z,4.9
2018-08-04T17:11:28.346Z,5
2018-08-04T17:17:23.317Z,5.21
2018-08-04T17:23:18.307Z,4.68
2018-08-04T17:29:13.310Z,5
2018-08-04T17:35:08.300Z,5.08
2018-08-04T17:41:03.299Z,4.28
2018-08-04T17:46:58.320Z,4.66
2018-08-04T17:52:53.306Z,5.36
2018-08-04T17:58:48.330Z,4.87
2018-08-04T18:04:43.323Z,5.21
2018-08-04T18:10:38.315Z,5.21
2018-08-04T18:16:33.345Z,5.68
2018-08-04T18:22:28.353Z,5.01
2018-08-04T18:28:23.383Z,4.94
2018-08-04T18:34:18.351Z,5.69
2018-08-04T18:40:13.361Z,4.63
2018-08-04T18:46:08.347Z,4.67
2018-08-04T18:52:03.336Z,4.78
2018-08-04T18:57:58.358Z,4.9
2018-08-04T19:03:53.368Z,4.62
2018-08-04T19:09:48.374Z,4.77
2018-08-04T19:15:43.362Z,4.33
2018-08-04T19:21:38.399Z,4.86
2018-08-04T19:27:33.394Z,4.78
2018-08-04T19:33:28.412Z,4.72
2018-08-04T19:39:23.381Z,4.66
2018-08-04T19:45:18.457Z,11.14
2018-08-04T19:51:13.391Z,5.33
2018-08-04T19:57:08.382Z,4.54
2018-08-04T20:03:03.404Z,5.12
2018-08-04T20:08:58.380Z,4.84
2018-08-04T20:14:53.532Z,5.44
2018-08-04T20:20:48.405Z,5.63
2018-08-04T20:26:43.412Z,5.88
2018-08-04T20:32:38.409Z,5.85
2018-08-04T20:38:33.469Z,5.8
2018-08-04T20:44:28.432Z,5.53
2018-08-04T20:50:23.433Z,6.22
2018-08-04T20:56:18.439Z,5.6
2018-08-04T21:02:13.465Z,6.54
2018-08-04T21:08:08.470Z,6.31
2018-08-04T21:14:03.457Z,7.33
2018-08-04T21:19:58.524Z,8.47
2018-08-04T21:25:53.451Z,9.39
2018-08-04T21:31:48.446Z,10.8
2018-08-04T21:37:43.462Z,19.03
2018-08-04T21:43:38.502Z,8.73
2018-08-04T21:49:33.577Z,9.27
2018-08-04T21:55:28.468Z,9.27
2018-08-04T22:01:23.561Z,9.07
2018-08-04T22:07:18.485Z,8.89
2018-08-04T22:13:13.547Z,7.93
2018-08-04T22:19:08.522Z,8.13
2018-08-04T22:25:03.503Z,8.1
2018-08-04T22:30:58.527Z,7.52
2018-08-04T22:36:53.485Z,7.87
2018-08-04T22:42:48.533Z,7.67
2018-08-04T22:48:43.524Z,7.69
2018-08-04T22:54:38.502Z,8.48
2018-08-04T23:00:33.526Z,7.46
2018-08-04T23:06:28.593Z,7.91
2018-08-04T23:12:23.532Z,8.05
2018-08-04T23:18:18.516Z,8.8
2018-08-04T23:24:13.518Z,8.3
2018-08-04T23:30:08.571Z,8.78
2018-08-04T23:36:03.586Z,8.88
2018-08-04T23:41:58.533Z,8.92
2018-08-04T23:47:53.559Z,9.28
2018-08-04T23:53:48.534Z,9.25
2018-08-04T23:59:43.546Z,9.46
